sensor_id;sensor_type;location;lat;lon;timestamp;P1;durP1;ratioP1;P2;durP2;ratioP2
69956;SDS011;57283;54.816;9.482;2022-08-19T00:02:15;17.73;;;10.00;;
69956;SDS011;57283;54.816;9.482;2022-08-19T00:04:43;20.43;;;9.13;;
69956;SDS011;57283;54.816;9.482;2022-08-19T00:07:13;18.58;;;9.10;;
69956;SDS011;57283;54.816;9.482;2022-08-19T00:09:40;17.80;;;10.00;;
69956;SDS011;57283;54.816;9.482;2022-08-19T00:12:08;18.25;;;9.20;;
69956;SDS011;57283;54.816;9.482;2022-08-19T00:14:37;17.15;;;9.50;;
69956;SDS011;57283;54.816;9.482;2022-08-19T00:17:07;15.67;;;9.47;;
69956;SDS011;57283;54.816;9.482;2022-08-19T00:19:35;18.05;;;9.60;;
69956;SDS011;57283;54.816;9.482;2022-08-19T00:22:03;15.88;;;9.63;;
69956;SDS011;57283;54.816;9.482;2022-08-19T00:24:31;17.42;;;8.88;;
69956;SDS011;57283;54.816;9.482;2022-08-19T00:27:00;18.13;;;10.02;;
69956;SDS011;57283;54.816;9.482;2022-08-19T00:29:50;19.83;;;8.80;;
69956;SDS011;57283;54.816;9.482;2022-08-19T00:32:18;18.67;;;9.30;;
69956;SDS011;57283;54.816;9.482;2022-08-19T00:34:45;18.42;;;9.02;;
69956;SDS011;57283;54.816;9.482;2022-08-19T00:37:13;18.17;;;9.82;;
69956;SDS011;57283;54.816;9.482;2022-08-19T00:39:41;16.85;;;9.95;;
69956;SDS011;57283;54.816;9.482;2022-08-19T00:42:08;16.37;;;9.63;;
69956;SDS011;57283;54.816;9.482;2022-08-19T00:44:36;19.35;;;10.40;;
69956;SDS011;57283;54.816;9.482;2022-08-19T00:47:05;18.38;;;9.27;;
69956;SDS011;57283;54.816;9.482;2022-08-19T00:49:40;19.20;;;9.88;;
69956;SDS011;57283;54.816;9.482;2022-08-19T00:52:10;18.20;;;9.55;;
69956;SDS011;57283;54.816;9.482;2022-08-19T00:54:39;20.43;;;10.80;;
69956;SDS011;57283;54.816;9.482;2022-08-19T00:57:09;16.50;;;10.00;;
69956;SDS011;57283;54.816;9.482;2022-08-19T00:59:38;19.17;;;10.02;;
69956;SDS011;57283;54.816;9.482;2022-08-19T01:02:28;17.80;;;9.55;;
69956;SDS011;57283;54.816;9.482;2022-08-19T01:04:56;18.73;;;9.65;;
69956;SDS011;57283;54.816;9.482;2022-08-19T01:07:24;17.93;;;9.80;;
69956;SDS011;57283;54.816;9.482;2022-08-19T01:09:52;17.45;;;9.23;;
69956;SDS011;57283;54.816;9.482;2022-08-19T01:12:19;17.45;;;9.77;;
69956;SDS011;57283;54.816;9.482;2022-08-19T01:14:47;24.08;;;9.95;;
69956;SDS011;57283;54.816;9.482;2022-08-19T01:17:15;18.02;;;10.40;;
69956;SDS011;57283;54.816;9.482;2022-08-19T01:19:45;19.80;;;10.50;;
69956;SDS011;57283;54.816;9.482;2022-08-19T01:22:14;17.08;;;9.60;;
69956;SDS011;57283;54.816;9.482;2022-08-19T01:24:53;18.90;;;10.38;;
69956;SDS011;57283;54.816;9.482;2022-08-19T01:27:21;18.30;;;9.60;;
69956;SDS011;57283;54.816;9.482;2022-08-19T01:29:49;18.95;;;10.10;;
69956;SDS011;57283;54.816;9.482;2022-08-19T01:32:17;18.87;;;10.20;;
69956;SDS011;57283;54.816;9.482;2022-08-19T01:34:59;20.08;;;10.90;;
69956;SDS011;57283;54.816;9.482;2022-08-19T01:37:28;21.13;;;10.05;;
69956;SDS011;57283;54.816;9.482;2022-08-19T01:39:58;17.65;;;9.95;;
69956;SDS011;57283;54.816;9.482;2022-08-19T01:42:26;16.42;;;9.82;;
69956;SDS011;57283;54.816;9.482;2022-08-19T01:44:55;17.90;;;10.20;;
69956;SDS011;57283;54.816;9.482;2022-08-19T01:47:23;17.17;;;10.32;;
69956;SDS011;57283;54.816;9.482;2022-08-19T01:49:51;15.00;;;9.48;;
69956;SDS011;57283;54.816;9.482;2022-08-19T01:52:18;19.00;;;10.18;;
69956;SDS011;57283;54.816;9.482;2022-08-19T01:54:46;16.85;;;10.13;;
69956;SDS011;57283;54.816;9.482;2022-08-19T01:57:15;20.23;;;10.27;;
69956;SDS011;57283;54.816;9.482;2022-08-19T01:59:43;15.70;;;9.77;;
69956;SDS011;57283;54.816;9.482;2022-08-19T02:02:11;18.08;;;9.38;;
69956;SDS011;57283;54.816;9.482;2022-08-19T02:04:39;19.15;;;10.25;;
69956;SDS011;57283;54.816;9.482;2022-08-19T02:07:07;19.17;;;10.18;;
69956;SDS011;57283;54.816;9.482;2022-08-19T02:09:35;17.00;;;9.50;;
69956;SDS011;57283;54.816;9.482;2022-08-19T02:12:03;20.85;;;10.18;;
69956;SDS011;57283;54.816;9.482;2022-08-19T02:14:32;18.38;;;9.70;;
69956;SDS011;57283;54.816;9.482;2022-08-19T02:17:00;17.98;;;10.27;;
69956;SDS011;57283;54.816;9.482;2022-08-19T02:19:28;17.77;;;10.27;;
69956;SDS011;57283;54.816;9.482;2022-08-19T02:21:58;18.37;;;10.37;;
69956;SDS011;57283;54.816;9.482;2022-08-19T02:24:26;20.23;;;10.05;;
69956;SDS011;57283;54.816;9.482;2022-08-19T02:26:54;19.60;;;9.65;;
69956;SDS011;57283;54.816;9.482;2022-08-19T02:29:22;17.83;;;10.32;;
69956;SDS011;57283;54.816;9.482;2022-08-19T02:31:50;18.38;;;10.40;;
69956;SDS011;57283;54.816;9.482;2022-08-19T02:34:18;17.67;;;10.33;;
69956;SDS011;57283;54.816;9.482;2022-08-19T02:36:46;19.67;;;10.00;;
69956;SDS011;57283;54.816;9.482;2022-08-19T02:39:17;18.88;;;10.23;;
69956;SDS011;57283;54.816;9.482;2022-08-19T02:41:44;17.67;;;10.63;;
69956;SDS011;57283;54.816;9.482;2022-08-19T02:44:11;18.13;;;10.40;;
69956;SDS011;57283;54.816;9.482;2022-08-19T02:46:58;21.67;;;10.97;;
69956;SDS011;57283;54.816;9.482;2022-08-19T02:49:25;21.45;;;11.00;;
69956;SDS011;57283;54.816;9.482;2022-08-19T02:51:53;20.45;;;10.73;;
69956;SDS011;57283;54.816;9.482;2022-08-19T02:54:21;22.30;;;10.65;;
69956;SDS011;57283;54.816;9.482;2022-08-19T02:56:48;19.50;;;10.85;;
69956;SDS011;57283;54.816;9.482;2022-08-19T02:59:16;19.97;;;10.27;;
69956;SDS011;57283;54.816;9.482;2022-08-19T03:01:48;22.98;;;11.18;;
69956;SDS011;57283;54.816;9.482;2022-08-19T03:04:18;18.92;;;11.13;;
69956;SDS011;57283;54.816;9.482;2022-08-19T03:06:46;23.35;;;11.38;;
69956;SDS011;57283;54.816;9.482;2022-08-19T03:09:14;18.45;;;9.73;;
69956;SDS011;57283;54.816;9.482;2022-08-19T03:11:41;21.43;;;10.77;;
69956;SDS011;57283;54.816;9.482;2022-08-19T03:14:09;21.95;;;11.25;;
69956;SDS011;57283;54.816;9.482;2022-08-19T03:16:43;20.42;;;10.35;;
69956;SDS011;57283;54.816;9.482;2022-08-19T03:19:11;21.58;;;10.80;;
69956;SDS011;57283;54.816;9.482;2022-08-19T03:21:42;28.70;;;11.02;;
69956;SDS011;57283;54.816;9.482;2022-08-19T03:24:10;21.27;;;11.53;;
69956;SDS011;57283;54.816;9.482;2022-08-19T03:26:39;20.13;;;11.27;;
69956;SDS011;57283;54.816;9.482;2022-08-19T03:29:06;19.67;;;12.00;;
69956;SDS011;57283;54.816;9.482;2022-08-19T03:31:37;25.13;;;12.65;;
69956;SDS011;57283;54.816;9.482;2022-08-19T03:34:11;24.17;;;12.90;;
69956;SDS011;57283;54.816;9.482;2022-08-19T03:36:41;28.40;;;12.23;;
69956;SDS011;57283;54.816;9.482;2022-08-19T03:39:09;28.75;;;12.30;;
69956;SDS011;57283;54.816;9.482;2022-08-19T03:41:37;21.77;;;12.10;;
69956;SDS011;57283;54.816;9.482;2022-08-19T03:44:11;27.77;;;12.90;;
69956;SDS011;57283;54.816;9.482;2022-08-19T03:46:44;22.50;;;12.10;;
69956;SDS011;57283;54.816;9.482;2022-08-19T03:49:12;24.70;;;12.37;;
69956;SDS011;57283;54.816;9.482;2022-08-19T03:51:41;25.60;;;12.05;;
69956;SDS011;57283;54.816;9.482;2022-08-19T03:54:12;27.98;;;12.15;;
69956;SDS011;57283;54.816;9.482;2022-08-19T03:56:40;25.40;;;12.27;;
69956;SDS011;57283;54.816;9.482;2022-08-19T03:59:10;26.63;;;12.27;;
69956;SDS011;57283;54.816;9.482;2022-08-19T04:01:39;24.40;;;11.70;;
69956;SDS011;57283;54.816;9.482;2022-08-19T04:04:07;24.80;;;13.15;;
69956;SDS011;57283;54.816;9.482;2022-08-19T04:06:35;29.58;;;13.10;;
69956;SDS011;57283;54.816;9.482;2022-08-19T04:09:07;27.00;;;12.77;;
69956;SDS011;57283;54.816;9.482;2022-08-19T04:11:36;29.65;;;11.45;;
69956;SDS011;57283;54.816;9.482;2022-08-19T04:14:10;30.00;;;13.70;;
69956;SDS011;57283;54.816;9.482;2022-08-19T04:16:38;29.92;;;14.80;;
69956;SDS011;57283;54.816;9.482;2022-08-19T04:19:06;32.55;;;15.23;;
69956;SDS011;57283;54.816;9.482;2022-08-19T04:21:34;33.33;;;15.57;;
69956;SDS011;57283;54.816;9.482;2022-08-19T04:24:02;28.95;;;14.75;;
69956;SDS011;57283;54.816;9.482;2022-08-19T04:26:32;30.37;;;14.47;;
69956;SDS011;57283;54.816;9.482;2022-08-19T04:29:01;30.48;;;13.98;;
69956;SDS011;57283;54.816;9.482;2022-08-19T04:31:31;29.17;;;14.00;;
69956;SDS011;57283;54.816;9.482;2022-08-19T04:34:02;26.05;;;12.70;;
69956;SDS011;57283;54.816;9.482;2022-08-19T04:36:31;26.48;;;13.30;;
69956;SDS011;57283;54.816;9.482;2022-08-19T04:39:00;24.90;;;12.80;;
69956;SDS011;57283;54.816;9.482;2022-08-19T04:41:28;25.17;;;11.85;;
69956;SDS011;57283;54.816;9.482;2022-08-19T04:44:14;24.77;;;12.60;;
69956;SDS011;57283;54.816;9.482;2022-08-19T04:46:44;25.75;;;12.93;;
69956;SDS011;57283;54.816;9.482;2022-08-19T04:49:17;26.55;;;12.77;;
69956;SDS011;57283;54.816;9.482;2022-08-19T04:51:45;23.07;;;13.47;;
69956;SDS011;57283;54.816;9.482;2022-08-19T04:54:14;23.42;;;12.73;;
69956;SDS011;57283;54.816;9.482;2022-08-19T04:57:02;22.27;;;12.45;;
69956;SDS011;57283;54.816;9.482;2022-08-19T04:59:32;24.92;;;12.85;;
69956;SDS011;57283;54.816;9.482;2022-08-19T05:02:00;24.88;;;13.40;;
69956;SDS011;57283;54.816;9.482;2022-08-19T05:04:28;25.80;;;13.17;;
69956;SDS011;57283;54.816;9.482;2022-08-19T05:06:58;22.77;;;12.00;;
69956;SDS011;57283;54.816;9.482;2022-08-19T05:09:27;23.85;;;13.52;;
69956;SDS011;57283;54.816;9.482;2022-08-19T05:12:14;27.35;;;13.35;;
69956;SDS011;57283;54.816;9.482;2022-08-19T05:14:44;21.63;;;13.20;;
69956;SDS011;57283;54.816;9.482;2022-08-19T05:17:13;24.43;;;12.90;;
69956;SDS011;57283;54.816;9.482;2022-08-19T05:20:01;23.73;;;13.80;;
69956;SDS011;57283;54.816;9.482;2022-08-19T05:22:47;24.98;;;12.75;;
69956;SDS011;57283;54.816;9.482;2022-08-19T05:25:15;26.80;;;12.95;;
69956;SDS011;57283;54.816;9.482;2022-08-19T05:27:44;25.77;;;13.90;;
69956;SDS011;57283;54.816;9.482;2022-08-19T05:30:14;26.47;;;13.40;;
69956;SDS011;57283;54.816;9.482;2022-08-19T05:32:41;23.90;;;13.25;;
69956;SDS011;57283;54.816;9.482;2022-08-19T05:35:09;21.15;;;13.23;;
69956;SDS011;57283;54.816;9.482;2022-08-19T05:37:38;21.98;;;13.38;;
69956;SDS011;57283;54.816;9.482;2022-08-19T05:40:07;22.33;;;12.32;;
69956;SDS011;57283;54.816;9.482;2022-08-19T05:42:35;22.33;;;12.70;;
69956;SDS011;57283;54.816;9.482;2022-08-19T05:45:03;23.90;;;12.13;;
69956;SDS011;57283;54.816;9.482;2022-08-19T05:47:32;24.58;;;13.75;;
69956;SDS011;57283;54.816;9.482;2022-08-19T05:50:07;26.15;;;13.38;;
69956;SDS011;57283;54.816;9.482;2022-08-19T05:52:35;23.08;;;12.23;;
69956;SDS011;57283;54.816;9.482;2022-08-19T05:55:08;26.50;;;13.70;;
69956;SDS011;57283;54.816;9.482;2022-08-19T05:57:36;25.05;;;12.80;;
69956;SDS011;57283;54.816;9.482;2022-08-19T06:00:05;23.95;;;13.48;;
69956;SDS011;57283;54.816;9.482;2022-08-19T06:02:36;24.85;;;13.95;;
69956;SDS011;57283;54.816;9.482;2022-08-19T06:05:04;27.23;;;14.23;;
69956;SDS011;57283;54.816;9.482;2022-08-19T06:07:35;27.53;;;14.50;;
69956;SDS011;57283;54.816;9.482;2022-08-19T06:10:03;24.63;;;13.70;;
69956;SDS011;57283;54.816;9.482;2022-08-19T06:12:31;25.25;;;14.73;;
69956;SDS011;57283;54.816;9.482;2022-08-19T06:15:01;29.30;;;15.35;;
69956;SDS011;57283;54.816;9.482;2022-08-19T06:17:30;26.45;;;16.15;;
69956;SDS011;57283;54.816;9.482;2022-08-19T06:19:59;25.80;;;15.03;;
69956;SDS011;57283;54.816;9.482;2022-08-19T06:22:27;27.80;;;15.60;;
69956;SDS011;57283;54.816;9.482;2022-08-19T06:24:55;24.58;;;14.77;;
69956;SDS011;57283;54.816;9.482;2022-08-19T06:27:23;26.45;;;15.80;;
69956;SDS011;57283;54.816;9.482;2022-08-19T06:29:51;28.23;;;16.08;;
69956;SDS011;57283;54.816;9.482;2022-08-19T06:32:19;33.60;;;15.83;;
69956;SDS011;57283;54.816;9.482;2022-08-19T06:34:46;30.80;;;16.25;;
69956;SDS011;57283;54.816;9.482;2022-08-19T06:37:15;30.17;;;15.38;;
69956;SDS011;57283;54.816;9.482;2022-08-19T06:39:43;33.22;;;15.95;;
69956;SDS011;57283;54.816;9.482;2022-08-19T06:42:11;28.42;;;15.45;;
69956;SDS011;57283;54.816;9.482;2022-08-19T06:44:43;29.80;;;15.53;;
69956;SDS011;57283;54.816;9.482;2022-08-19T06:47:15;30.08;;;16.13;;
69956;SDS011;57283;54.816;9.482;2022-08-19T06:49:54;30.33;;;15.68;;
69956;SDS011;57283;54.816;9.482;2022-08-19T06:52:29;30.95;;;16.17;;
69956;SDS011;57283;54.816;9.482;2022-08-19T06:54:59;31.08;;;16.42;;
69956;SDS011;57283;54.816;9.482;2022-08-19T06:57:31;29.23;;;16.30;;
69956;SDS011;57283;54.816;9.482;2022-08-19T06:59:59;32.33;;;16.52;;
69956;SDS011;57283;54.816;9.482;2022-08-19T07:02:27;28.30;;;16.50;;
69956;SDS011;57283;54.816;9.482;2022-08-19T07:04:55;30.83;;;16.20;;
69956;SDS011;57283;54.816;9.482;2022-08-19T07:07:24;33.58;;;16.67;;
69956;SDS011;57283;54.816;9.482;2022-08-19T07:09:53;31.50;;;16.10;;
69956;SDS011;57283;54.816;9.482;2022-08-19T07:12:27;30.95;;;16.45;;
69956;SDS011;57283;54.816;9.482;2022-08-19T07:14:56;29.38;;;15.95;;
69956;SDS011;57283;54.816;9.482;2022-08-19T07:17:24;32.90;;;16.50;;
69956;SDS011;57283;54.816;9.482;2022-08-19T07:19:52;33.00;;;17.90;;
69956;SDS011;57283;54.816;9.482;2022-08-19T07:22:20;31.17;;;16.80;;
69956;SDS011;57283;54.816;9.482;2022-08-19T07:24:49;29.10;;;16.02;;
69956;SDS011;57283;54.816;9.482;2022-08-19T07:27:18;28.65;;;16.77;;
69956;SDS011;57283;54.816;9.482;2022-08-19T07:29:51;28.92;;;16.42;;
69956;SDS011;57283;54.816;9.482;2022-08-19T07:32:21;28.52;;;16.75;;
69956;SDS011;57283;54.816;9.482;2022-08-19T07:34:50;27.97;;;16.23;;
69956;SDS011;57283;54.816;9.482;2022-08-19T07:37:18;28.17;;;15.63;;
69956;SDS011;57283;54.816;9.482;2022-08-19T07:39:46;24.77;;;15.95;;
69956;SDS011;57283;54.816;9.482;2022-08-19T07:42:14;27.13;;;15.30;;
69956;SDS011;57283;54.816;9.482;2022-08-19T07:44:45;27.25;;;16.00;;
69956;SDS011;57283;54.816;9.482;2022-08-19T07:47:16;29.53;;;16.50;;
69956;SDS011;57283;54.816;9.482;2022-08-19T07:50:05;23.92;;;14.43;;
69956;SDS011;57283;54.816;9.482;2022-08-19T07:52:33;24.83;;;14.88;;
69956;SDS011;57283;54.816;9.482;2022-08-19T07:55:02;26.45;;;15.80;;
69956;SDS011;57283;54.816;9.482;2022-08-19T07:57:30;25.50;;;15.32;;
69956;SDS011;57283;54.816;9.482;2022-08-19T07:59:59;25.20;;;16.17;;
69956;SDS011;57283;54.816;9.482;2022-08-19T08:02:27;24.75;;;15.93;;
69956;SDS011;57283;54.816;9.482;2022-08-19T08:04:54;25.52;;;16.17;;
69956;SDS011;57283;54.816;9.482;2022-08-19T08:07:39;24.48;;;16.00;;
69956;SDS011;57283;54.816;9.482;2022-08-19T08:10:24;27.80;;;15.25;;
69956;SDS011;57283;54.816;9.482;2022-08-19T08:12:52;24.83;;;15.50;;
69956;SDS011;57283;54.816;9.482;2022-08-19T08:15:37;23.75;;;14.63;;
69956;SDS011;57283;54.816;9.482;2022-08-19T08:18:08;26.55;;;15.40;;
69956;SDS011;57283;54.816;9.482;2022-08-19T08:20:36;25.92;;;15.23;;
69956;SDS011;57283;54.816;9.482;2022-08-19T08:23:03;25.27;;;14.57;;
69956;SDS011;57283;54.816;9.482;2022-08-19T08:25:52;26.23;;;15.50;;
69956;SDS011;57283;54.816;9.482;2022-08-19T08:28:20;24.80;;;15.48;;
69956;SDS011;57283;54.816;9.482;2022-08-19T08:30:50;25.65;;;14.05;;
69956;SDS011;57283;54.816;9.482;2022-08-19T08:33:19;22.35;;;13.88;;
69956;SDS011;57283;54.816;9.482;2022-08-19T08:36:00;24.58;;;14.70;;
69956;SDS011;57283;54.816;9.482;2022-08-19T08:38:30;21.97;;;14.13;;
69956;SDS011;57283;54.816;9.482;2022-08-19T08:41:06;21.42;;;13.35;;
69956;SDS011;57283;54.816;9.482;2022-08-19T08:43:37;22.52;;;13.75;;
69956;SDS011;57283;54.816;9.482;2022-08-19T08:46:07;20.92;;;13.75;;
69956;SDS011;57283;54.816;9.482;2022-08-19T08:48:38;22.75;;;13.80;;
69956;SDS011;57283;54.816;9.482;2022-08-19T08:51:08;21.40;;;14.10;;
69956;SDS011;57283;54.816;9.482;2022-08-19T08:53:37;21.67;;;13.98;;
69956;SDS011;57283;54.816;9.482;2022-08-19T08:56:08;21.67;;;13.13;;
69956;SDS011;57283;54.816;9.482;2022-08-19T08:58:51;22.77;;;13.13;;
69956;SDS011;57283;54.816;9.482;2022-08-19T09:01:23;25.25;;;14.50;;
69956;SDS011;57283;54.816;9.482;2022-08-19T09:03:55;21.77;;;13.63;;
69956;SDS011;57283;54.816;9.482;2022-08-19T09:06:29;23.02;;;14.63;;
69956;SDS011;57283;54.816;9.482;2022-08-19T09:09:00;24.13;;;15.27;;
69956;SDS011;57283;54.816;9.482;2022-08-19T09:11:40;26.13;;;14.55;;
69956;SDS011;57283;54.816;9.482;2022-08-19T09:14:11;22.27;;;14.57;;
69956;SDS011;57283;54.816;9.482;2022-08-19T09:17:01;22.13;;;14.50;;
69956;SDS011;57283;54.816;9.482;2022-08-19T09:19:34;23.00;;;14.50;;
69956;SDS011;57283;54.816;9.482;2022-08-19T09:22:01;24.90;;;14.75;;
69956;SDS011;57283;54.816;9.482;2022-08-19T09:24:29;23.70;;;15.07;;
69956;SDS011;57283;54.816;9.482;2022-08-19T09:26:57;21.98;;;14.90;;
69956;SDS011;57283;54.816;9.482;2022-08-19T09:29:24;23.50;;;14.97;;
69956;SDS011;57283;54.816;9.482;2022-08-19T09:31:52;20.50;;;13.93;;
69956;SDS011;57283;54.816;9.482;2022-08-19T09:34:21;19.15;;;13.48;;
69956;SDS011;57283;54.816;9.482;2022-08-19T09:36:49;20.85;;;13.05;;
69956;SDS011;57283;54.816;9.482;2022-08-19T09:39:19;22.33;;;14.98;;
69956;SDS011;57283;54.816;9.482;2022-08-19T09:41:47;23.83;;;15.93;;
69956;SDS011;57283;54.816;9.482;2022-08-19T09:44:16;25.90;;;16.27;;
69956;SDS011;57283;54.816;9.482;2022-08-19T09:46:47;23.88;;;14.85;;
69956;SDS011;57283;54.816;9.482;2022-08-19T09:49:14;22.58;;;14.85;;
69956;SDS011;57283;54.816;9.482;2022-08-19T09:51:45;21.20;;;14.70;;
69956;SDS011;57283;54.816;9.482;2022-08-19T09:54:16;20.90;;;13.77;;
69956;SDS011;57283;54.816;9.482;2022-08-19T09:56:50;20.70;;;14.48;;
69956;SDS011;57283;54.816;9.482;2022-08-19T09:59:17;22.25;;;14.73;;
69956;SDS011;57283;54.816;9.482;2022-08-19T10:01:45;23.33;;;14.85;;
69956;SDS011;57283;54.816;9.482;2022-08-19T10:04:13;22.15;;;14.25;;
69956;SDS011;57283;54.816;9.482;2022-08-19T10:06:49;23.30;;;14.63;;
69956;SDS011;57283;54.816;9.482;2022-08-19T10:09:19;23.25;;;15.18;;
69956;SDS011;57283;54.816;9.482;2022-08-19T10:11:59;25.40;;;14.98;;
69956;SDS011;57283;54.816;9.482;2022-08-19T10:14:28;23.50;;;15.55;;
69956;SDS011;57283;54.816;9.482;2022-08-19T10:16:55;22.15;;;15.32;;
69956;SDS011;57283;54.816;9.482;2022-08-19T10:19:24;19.90;;;14.17;;
69956;SDS011;57283;54.816;9.482;2022-08-19T10:21:53;16.67;;;12.50;;
69956;SDS011;57283;54.816;9.482;2022-08-19T10:24:25;20.42;;;13.45;;
69956;SDS011;57283;54.816;9.482;2022-08-19T10:26:54;17.55;;;12.88;;
69956;SDS011;57283;54.816;9.482;2022-08-19T10:29:25;16.98;;;12.82;;
69956;SDS011;57283;54.816;9.482;2022-08-19T10:31:58;19.83;;;13.67;;
69956;SDS011;57283;54.816;9.482;2022-08-19T10:34:28;21.08;;;14.27;;
69956;SDS011;57283;54.816;9.482;2022-08-19T10:36:58;22.73;;;15.00;;
69956;SDS011;57283;54.816;9.482;2022-08-19T10:39:27;21.30;;;14.20;;
69956;SDS011;57283;54.816;9.482;2022-08-19T10:41:57;19.58;;;14.18;;
69956;SDS011;57283;54.816;9.482;2022-08-19T10:44:24;21.23;;;15.63;;
69956;SDS011;57283;54.816;9.482;2022-08-19T10:46:58;20.67;;;14.32;;
69956;SDS011;57283;54.816;9.482;2022-08-19T10:49:26;21.27;;;14.25;;
69956;SDS011;57283;54.816;9.482;2022-08-19T10:51:53;20.88;;;14.43;;
69956;SDS011;57283;54.816;9.482;2022-08-19T10:54:47;22.75;;;15.70;;
69956;SDS011;57283;54.816;9.482;2022-08-19T10:57:34;23.73;;;16.07;;
69956;SDS011;57283;54.816;9.482;2022-08-19T11:00:22;23.50;;;16.08;;
69956;SDS011;57283;54.816;9.482;2022-08-19T11:02:50;22.13;;;15.43;;
69956;SDS011;57283;54.816;9.482;2022-08-19T11:05:18;23.23;;;15.10;;
69956;SDS011;57283;54.816;9.482;2022-08-19T11:07:49;24.33;;;16.45;;
69956;SDS011;57283;54.816;9.482;2022-08-19T11:10:19;23.17;;;15.73;;
69956;SDS011;57283;54.816;9.482;2022-08-19T11:12:48;22.67;;;15.38;;
69956;SDS011;57283;54.816;9.482;2022-08-19T11:15:20;24.70;;;16.33;;
69956;SDS011;57283;54.816;9.482;2022-08-19T11:17:48;26.83;;;16.88;;
69956;SDS011;57283;54.816;9.482;2022-08-19T11:20:20;26.70;;;16.92;;
69956;SDS011;57283;54.816;9.482;2022-08-19T11:22:50;24.10;;;15.90;;
69956;SDS011;57283;54.816;9.482;2022-08-19T11:25:20;25.23;;;16.40;;
69956;SDS011;57283;54.816;9.482;2022-08-19T11:27:47;22.17;;;15.00;;
69956;SDS011;57283;54.816;9.482;2022-08-19T11:30:17;23.60;;;16.38;;
69956;SDS011;57283;54.816;9.482;2022-08-19T11:32:44;24.70;;;15.48;;
69956;SDS011;57283;54.816;9.482;2022-08-19T11:35:15;23.10;;;15.50;;
69956;SDS011;57283;54.816;9.482;2022-08-19T11:37:42;22.42;;;14.90;;
69956;SDS011;57283;54.816;9.482;2022-08-19T11:40:11;24.02;;;15.43;;
69956;SDS011;57283;54.816;9.482;2022-08-19T11:42:40;23.35;;;15.45;;
69956;SDS011;57283;54.816;9.482;2022-08-19T11:45:23;22.23;;;15.25;;
69956;SDS011;57283;54.816;9.482;2022-08-19T11:47:50;23.63;;;16.30;;
69956;SDS011;57283;54.816;9.482;2022-08-19T11:50:18;20.98;;;16.08;;
69956;SDS011;57283;54.816;9.482;2022-08-19T11:52:46;22.55;;;15.32;;
69956;SDS011;57283;54.816;9.482;2022-08-19T11:55:15;20.48;;;14.38;;
69956;SDS011;57283;54.816;9.482;2022-08-19T11:57:44;19.50;;;14.20;;
69956;SDS011;57283;54.816;9.482;2022-08-19T12:00:13;22.03;;;14.70;;
69956;SDS011;57283;54.816;9.482;2022-08-19T12:02:41;21.00;;;14.98;;
69956;SDS011;57283;54.816;9.482;2022-08-19T12:05:08;20.48;;;13.95;;
69956;SDS011;57283;54.816;9.482;2022-08-19T12:07:38;21.65;;;14.85;;
69956;SDS011;57283;54.816;9.482;2022-08-19T12:10:07;19.58;;;14.43;;
69956;SDS011;57283;54.816;9.482;2022-08-19T12:12:36;20.10;;;14.30;;
69956;SDS011;57283;54.816;9.482;2022-08-19T12:15:08;16.67;;;12.88;;
69956;SDS011;57283;54.816;9.482;2022-08-19T12:17:37;15.48;;;12.52;;
69956;SDS011;57283;54.816;9.482;2022-08-19T12:20:05;16.77;;;12.98;;
69956;SDS011;57283;54.816;9.482;2022-08-19T12:22:34;14.77;;;12.90;;
69956;SDS011;57283;54.816;9.482;2022-08-19T12:25:02;16.53;;;13.53;;
69956;SDS011;57283;54.816;9.482;2022-08-19T12:27:29;14.38;;;12.82;;
69956;SDS011;57283;54.816;9.482;2022-08-19T12:30:09;13.75;;;11.75;;
69956;SDS011;57283;54.816;9.482;2022-08-19T12:32:38;15.77;;;13.02;;
69956;SDS011;57283;54.816;9.482;2022-08-19T12:35:06;14.43;;;12.60;;
69956;SDS011;57283;54.816;9.482;2022-08-19T12:37:35;15.83;;;12.60;;
69956;SDS011;57283;54.816;9.482;2022-08-19T12:40:03;13.80;;;11.82;;
69956;SDS011;57283;54.816;9.482;2022-08-19T12:42:31;14.85;;;11.77;;
69956;SDS011;57283;54.816;9.482;2022-08-19T12:44:58;13.82;;;12.32;;
69956;SDS011;57283;54.816;9.482;2022-08-19T12:47:27;13.82;;;12.35;;
69956;SDS011;57283;54.816;9.482;2022-08-19T12:49:57;16.97;;;14.03;;
69956;SDS011;57283;54.816;9.482;2022-08-19T12:52:25;14.20;;;12.70;;
69956;SDS011;57283;54.816;9.482;2022-08-19T12:54:54;15.63;;;13.90;;
69956;SDS011;57283;54.816;9.482;2022-08-19T12:57:22;15.75;;;14.07;;
69956;SDS011;57283;54.816;9.482;2022-08-19T12:59:58;13.40;;;12.00;;
69956;SDS011;57283;54.816;9.482;2022-08-19T13:02:27;13.98;;;12.15;;
69956;SDS011;57283;54.816;9.482;2022-08-19T13:04:55;15.40;;;13.87;;
69956;SDS011;57283;54.816;9.482;2022-08-19T13:07:23;15.35;;;13.70;;
69956;SDS011;57283;54.816;9.482;2022-08-19T13:09:50;14.02;;;12.63;;
69956;SDS011;57283;54.816;9.482;2022-08-19T13:12:18;14.40;;;13.00;;
69956;SDS011;57283;54.816;9.482;2022-08-19T13:14:50;13.23;;;11.85;;
69956;SDS011;57283;54.816;9.482;2022-08-19T13:17:18;16.58;;;13.30;;
69956;SDS011;57283;54.816;9.482;2022-08-19T13:19:47;15.80;;;12.50;;
69956;SDS011;57283;54.816;9.482;2022-08-19T13:22:14;14.83;;;13.33;;
69956;SDS011;57283;54.816;9.482;2022-08-19T13:24:42;14.05;;;12.55;;
69956;SDS011;57283;54.816;9.482;2022-08-19T13:27:12;16.45;;;12.15;;
69956;SDS011;57283;54.816;9.482;2022-08-19T13:29:40;13.07;;;11.77;;
69956;SDS011;57283;54.816;9.482;2022-08-19T13:32:25;13.80;;;12.40;;
69956;SDS011;57283;54.816;9.482;2022-08-19T13:35:12;15.57;;;13.93;;
69956;SDS011;57283;54.816;9.482;2022-08-19T13:37:42;13.13;;;11.80;;
69956;SDS011;57283;54.816;9.482;2022-08-19T13:40:11;13.13;;;11.73;;
69956;SDS011;57283;54.816;9.482;2022-08-19T13:42:41;13.18;;;11.60;;
69956;SDS011;57283;54.816;9.482;2022-08-19T13:45:10;12.88;;;11.65;;
69956;SDS011;57283;54.816;9.482;2022-08-19T13:47:37;13.17;;;11.03;;
69956;SDS011;57283;54.816;9.482;2022-08-19T13:50:10;13.27;;;11.87;;
69956;SDS011;57283;54.816;9.482;2022-08-19T13:52:40;11.98;;;10.70;;
69956;SDS011;57283;54.816;9.482;2022-08-19T13:55:08;13.90;;;12.43;;
69956;SDS011;57283;54.816;9.482;2022-08-19T13:57:36;15.32;;;11.73;;
69956;SDS011;57283;54.816;9.482;2022-08-19T14:00:06;12.82;;;11.15;;
69956;SDS011;57283;54.816;9.482;2022-08-19T14:02:35;13.00;;;11.70;;
69956;SDS011;57283;54.816;9.482;2022-08-19T14:05:04;12.47;;;11.17;;
69956;SDS011;57283;54.816;9.482;2022-08-19T14:07:31;13.82;;;12.32;;
69956;SDS011;57283;54.816;9.482;2022-08-19T14:10:00;13.38;;;11.98;;
69956;SDS011;57283;54.816;9.482;2022-08-19T14:12:28;12.50;;;10.98;;
69956;SDS011;57283;54.816;9.482;2022-08-19T14:14:58;13.00;;;10.88;;
69956;SDS011;57283;54.816;9.482;2022-08-19T14:17:26;14.87;;;13.33;;
69956;SDS011;57283;54.816;9.482;2022-08-19T14:19:55;13.95;;;12.45;;
69956;SDS011;57283;54.816;9.482;2022-08-19T14:22:28;16.58;;;14.88;;
69956;SDS011;57283;54.816;9.482;2022-08-19T14:24:56;15.02;;;13.43;;
69956;SDS011;57283;54.816;9.482;2022-08-19T14:27:25;16.48;;;14.77;;
69956;SDS011;57283;54.816;9.482;2022-08-19T14:29:53;14.13;;;12.63;;
69956;SDS011;57283;54.816;9.482;2022-08-19T14:32:21;14.18;;;12.18;;
69956;SDS011;57283;54.816;9.482;2022-08-19T14:34:48;12.77;;;11.48;;
69956;SDS011;57283;54.816;9.482;2022-08-19T14:37:16;11.68;;;10.30;;
69956;SDS011;57283;54.816;9.482;2022-08-19T14:39:44;11.35;;;10.15;;
69956;SDS011;57283;54.816;9.482;2022-08-19T14:42:12;12.30;;;10.13;;